sensor_id;sensor_type;location;lat;lon;timestamp;pressure;altitude;pressure_sealevel;temperature;humidity
41102;BME280;26845;50.190;19.178;2022-10-29T00:00:43;99403.95;;;9.66;85.90
41102;BME280;26845;50.190;19.178;2022-10-29T00:03:10;99399.23;;;9.67;86.14
41102;BME280;26845;50.190;19.178;2022-10-29T00:05:35;99400.98;;;9.60;86.17
41102;BME280;26845;50.190;19.178;2022-10-29T00:08:01;99407.13;;;9.57;86.09
41102;BME280;26845;50.190;19.178;2022-10-29T00:10:28;99406.87;;;9.56;86.03
41102;BME280;26845;50.190;19.178;2022-10-29T00:12:54;99406.64;;;9.50;85.97
41102;BME280;26845;50.190;19.178;2022-10-29T00:15:20;99410.75;;;9.55;86.63
41102;BME280;26845;50.190;19.178;2022-10-29T00:17:46;99411.83;;;9.59;86.54
41102;BME280;26845;50.190;19.178;2022-10-29T00:20:12;99404.89;;;9.59;86.45
41102;BME280;26845;50.190;19.178;2022-10-29T00:22:38;99406.00;;;9.58;86.75
41102;BME280;26845;50.190;19.178;2022-10-29T00:25:04;99409.88;;;9.60;87.01
41102;BME280;26845;50.190;19.178;2022-10-29T00:27:30;99408.97;;;9.64;87.11
41102;BME280;26845;50.190;19.178;2022-10-29T00:29:55;99412.54;;;9.67;86.53
41102;BME280;26845;50.190;19.178;2022-10-29T00:32:21;99413.11;;;9.67;86.74
41102;BME280;26845;50.190;19.178;2022-10-29T00:34:47;99404.72;;;9.72;86.96
41102;BME280;26845;50.190;19.178;2022-10-29T00:37:16;99398.60;;;9.73;87.21
41102;BME280;26845;50.190;19.178;2022-10-29T00:39:41;99401.95;;;9.72;86.99
41102;BME280;26845;50.190;19.178;2022-10-29T00:42:12;99401.06;;;9.77;87.79
41102;BME280;26845;50.190;19.178;2022-10-29T00:44:40;99402.52;;;9.72;87.17
41102;BME280;26845;50.190;19.178;2022-10-29T00:47:12;99407.44;;;9.77;87.72
41102;BME280;26845;50.190;19.178;2022-10-29T00:49:41;99401.58;;;9.79;87.48
41102;BME280;26845;50.190;19.178;2022-10-29T00:52:09;99400.13;;;9.84;87.70
41102;BME280;26845;50.190;19.178;2022-10-29T00:54:38;99394.52;;;9.89;87.89
41102;BME280;26845;50.190;19.178;2022-10-29T00:57:09;99388.42;;;9.87;88.02
41102;BME280;26845;50.190;19.178;2022-10-29T00:59:40;99386.22;;;9.86;88.12
41102;BME280;26845;50.190;19.178;2022-10-29T01:02:08;99376.47;;;9.89;87.77
41102;BME280;26845;50.190;19.178;2022-10-29T01:04:35;99371.17;;;9.90;87.96
41102;BME280;26845;50.190;19.178;2022-10-29T01:07:02;99382.56;;;9.91;87.58
41102;BME280;26845;50.190;19.178;2022-10-29T01:09:28;99384.20;;;9.92;87.76
41102;BME280;26845;50.190;19.178;2022-10-29T01:12:11;99380.38;;;9.88;87.95
41102;BME280;26845;50.190;19.178;2022-10-29T01:32:12;99358.08;;;9.93;87.95
41102;BME280;26845;50.190;19.178;2022-10-29T01:34:56;99372.49;;;9.95;88.07
41102;BME280;26845;50.190;19.178;2022-10-29T01:40:13;99368.05;;;9.97;88.91
41102;BME280;26845;50.190;19.178;2022-10-29T01:42:49;99366.94;;;9.95;88.75
41102;BME280;26845;50.190;19.178;2022-10-29T01:45:30;99355.61;;;9.91;88.78
41102;BME280;26845;50.190;19.178;2022-10-29T01:48:07;99359.97;;;9.98;89.06
41102;BME280;26845;50.190;19.178;2022-10-29T01:50:33;99355.41;;;10.04;89.07
41102;BME280;26845;50.190;19.178;2022-10-29T01:53:03;99352.73;;;9.99;88.35
41102;BME280;26845;50.190;19.178;2022-10-29T01:55:31;99345.26;;;9.97;88.36
41102;BME280;26845;50.190;19.178;2022-10-29T01:58:02;99339.45;;;9.96;88.28
41102;BME280;26845;50.190;19.178;2022-10-29T02:00:42;99345.30;;;9.95;88.31
41102;BME280;26845;50.190;19.178;2022-10-29T02:03:23;99349.20;;;9.94;88.58
41102;BME280;26845;50.190;19.178;2022-10-29T02:09:16;99356.14;;;9.94;88.69
41102;BME280;26845;50.190;19.178;2022-10-29T02:12:12;99360.03;;;9.93;88.59
41102;BME280;26845;50.190;19.178;2022-10-29T02:14:55;99364.77;;;9.92;88.69
41102;BME280;26845;50.190;19.178;2022-10-29T02:17:19;99362.30;;;9.90;88.44
41102;BME280;26845;50.190;19.178;2022-10-29T02:19:44;99356.50;;;9.87;88.18
41102;BME280;26845;50.190;19.178;2022-10-29T02:22:10;99346.02;;;9.81;87.96
41102;BME280;26845;50.190;19.178;2022-10-29T02:24:36;99346.30;;;9.82;88.22
41102;BME280;26845;50.190;19.178;2022-10-29T02:27:01;99340.19;;;9.83;87.95
41102;BME280;26845;50.190;19.178;2022-10-29T02:29:27;99337.98;;;9.82;88.55
41102;BME280;26845;50.190;19.178;2022-10-29T02:31:52;99339.65;;;9.81;88.24
41102;BME280;26845;50.190;19.178;2022-10-29T02:34:18;99340.81;;;9.77;88.62
41102;BME280;26845;50.190;19.178;2022-10-29T02:36:43;99340.47;;;9.81;88.92
41102;BME280;26845;50.190;19.178;2022-10-29T02:39:09;99336.56;;;9.85;89.08
41102;BME280;26845;50.190;19.178;2022-10-29T02:41:35;99337.59;;;9.89;88.95
41102;BME280;26845;50.190;19.178;2022-10-29T02:44:00;99339.23;;;9.90;88.79
41102;BME280;26845;50.190;19.178;2022-10-29T02:46:26;99329.23;;;9.91;88.87
41102;BME280;26845;50.190;19.178;2022-10-29T02:48:53;99330.37;;;9.90;88.70
41102;BME280;26845;50.190;19.178;2022-10-29T02:51:19;99332.27;;;9.93;88.68
41102;BME280;26845;50.190;19.178;2022-10-29T02:53:45;99348.92;;;9.93;89.08
41102;BME280;26845;50.190;19.178;2022-10-29T02:56:10;99350.03;;;9.94;89.05
41102;BME280;26845;50.190;19.178;2022-10-29T02:58:37;99338.60;;;9.96;89.40
41102;BME280;26845;50.190;19.178;2022-10-29T03:01:03;99336.33;;;10.00;89.20
41102;BME280;26845;50.190;19.178;2022-10-29T03:03:32;99337.43;;;10.02;89.28
41102;BME280;26845;50.190;19.178;2022-10-29T03:05:58;99333.52;;;10.03;89.27
41102;BME280;26845;50.190;19.178;2022-10-29T03:08:24;99333.41;;;10.10;89.89
41102;BME280;26845;50.190;19.178;2022-10-29T03:10:49;99347.48;;;10.17;89.68
41102;BME280;26845;50.190;19.178;2022-10-29T03:13:15;99330.20;;;10.20;89.66
41102;BME280;26845;50.190;19.178;2022-10-29T03:15:42;99340.18;;;10.21;89.90
41102;BME280;26845;50.190;19.178;2022-10-29T03:18:09;99337.62;;;10.24;89.64
41102;BME280;26845;50.190;19.178;2022-10-29T03:20:35;99342.84;;;10.31;89.86
41102;BME280;26845;50.190;19.178;2022-10-29T03:23:01;99321.65;;;10.35;89.65
41102;BME280;26845;50.190;19.178;2022-10-29T03:25:26;99319.69;;;10.35;89.63
41102;BME280;26845;50.190;19.178;2022-10-29T03:27:52;99309.97;;;10.35;89.63
41102;BME280;26845;50.190;19.178;2022-10-29T03:30:18;99313.92;;;10.32;89.43
41102;BME280;26845;50.190;19.178;2022-10-29T03:32:45;99319.23;;;10.31;89.47
41102;BME280;26845;50.190;19.178;2022-10-29T03:35:13;99326.22;;;10.26;89.26
41102;BME280;26845;50.190;19.178;2022-10-29T03:37:40;99328.21;;;10.23;89.44
41102;BME280;26845;50.190;19.178;2022-10-29T03:40:07;99319.88;;;10.23;89.80
41102;BME280;26845;50.190;19.178;2022-10-29T03:42:34;99327.68;;;10.21;89.76
41102;BME280;26845;50.190;19.178;2022-10-29T03:45:00;99333.20;;;10.23;90.05
41102;BME280;26845;50.190;19.178;2022-10-29T03:47:27;99330.06;;;10.30;90.09
41102;BME280;26845;50.190;19.178;2022-10-29T03:49:53;99340.53;;;10.35;89.97
41102;BME280;26845;50.190;19.178;2022-10-29T03:52:19;99345.80;;;10.37;89.69
41102;BME280;26845;50.190;19.178;2022-10-29T03:54:45;99345.23;;;10.38;89.70
41102;BME280;26845;50.190;19.178;2022-10-29T03:57:11;99350.78;;;10.38;89.85
41102;BME280;26845;50.190;19.178;2022-10-29T03:59:36;99338.49;;;10.41;90.03
41102;BME280;26845;50.190;19.178;2022-10-29T04:02:02;99338.24;;;10.40;89.75
41102;BME280;26845;50.190;19.178;2022-10-29T04:04:28;99344.05;;;10.41;90.29
41102;BME280;26845;50.190;19.178;2022-10-29T04:06:54;99343.27;;;10.38;90.40
41102;BME280;26845;50.190;19.178;2022-10-29T04:09:19;99351.64;;;10.35;90.59
41102;BME280;26845;50.190;19.178;2022-10-29T04:11:45;99336.08;;;10.37;90.60
41102;BME280;26845;50.190;19.178;2022-10-29T04:14:10;99335.39;;;10.45;90.87
41102;BME280;26845;50.190;19.178;2022-10-29T04:16:36;99328.69;;;10.46;90.51
41102;BME280;26845;50.190;19.178;2022-10-29T04:19:02;99321.66;;;10.51;90.69
41102;BME280;26845;50.190;19.178;2022-10-29T04:21:28;99326.08;;;10.52;90.75
41102;BME280;26845;50.190;19.178;2022-10-29T04:23:54;99324.41;;;10.54;90.72
41102;BME280;26845;50.190;19.178;2022-10-29T04:26:20;99319.70;;;10.52;90.97
41102;BME280;26845;50.190;19.178;2022-10-29T04:28:50;99324.44;;;10.51;91.43
41102;BME280;26845;50.190;19.178;2022-10-29T04:31:16;99331.14;;;10.50;91.80
41102;BME280;26845;50.190;19.178;2022-10-29T04:33:43;99327.18;;;10.54;91.47
41102;BME280;26845;50.190;19.178;2022-10-29T04:36:09;99324.61;;;10.57;91.26
41102;BME280;26845;50.190;19.178;2022-10-29T04:38:35;99321.42;;;10.64;91.19
41102;BME280;26845;50.190;19.178;2022-10-29T04:41:01;99328.09;;;10.66;91.07
41102;BME280;26845;50.190;19.178;2022-10-29T04:43:28;99320.89;;;10.65;91.32
41102;BME280;26845;50.190;19.178;2022-10-29T04:45:56;99309.45;;;10.66;91.35
41102;BME280;26845;50.190;19.178;2022-10-29T04:48:24;99332.75;;;10.70;91.41
41102;BME280;26845;50.190;19.178;2022-10-29T04:50:52;99324.86;;;10.75;92.16
41102;BME280;26845;50.190;19.178;2022-10-29T04:53:18;99325.80;;;10.84;91.85
41102;BME280;26845;50.190;19.178;2022-10-29T04:55:45;99317.65;;;10.90;91.74
41102;BME280;26845;50.190;19.178;2022-10-29T04:58:14;99288.03;;;10.97;91.68
41102;BME280;26845;50.190;19.178;2022-10-29T05:00:44;99280.42;;;11.02;91.54
41102;BME280;26845;50.190;19.178;2022-10-29T05:03:10;99278.88;;;11.10;91.60
41102;BME280;26845;50.190;19.178;2022-10-29T05:05:37;99309.36;;;11.15;92.34
41102;BME280;26845;50.190;19.178;2022-10-29T05:08:05;99290.45;;;11.15;91.92
41102;BME280;26845;50.190;19.178;2022-10-29T05:10:33;99298.18;;;11.18;92.61
41102;BME280;26845;50.190;19.178;2022-10-29T05:13:02;99290.61;;;11.21;92.34
41102;BME280;26845;50.190;19.178;2022-10-29T05:15:31;99294.16;;;11.24;91.91
41102;BME280;26845;50.190;19.178;2022-10-29T05:17:57;99307.53;;;11.24;91.92
41102;BME280;26845;50.190;19.178;2022-10-29T05:20:26;99317.27;;;11.24;92.86
41102;BME280;26845;50.190;19.178;2022-10-29T05:23:00;99324.22;;;11.24;92.37
41102;BME280;26845;50.190;19.178;2022-10-29T05:25:28;99321.39;;;11.27;91.97
41102;BME280;26845;50.190;19.178;2022-10-29T05:28:06;99329.13;;;11.30;92.30
41102;BME280;26845;50.190;19.178;2022-10-29T05:30:34;99334.69;;;11.30;92.67
41102;BME280;26845;50.190;19.178;2022-10-29T05:33:00;99317.38;;;11.33;92.45
41102;BME280;26845;50.190;19.178;2022-10-29T05:35:26;99310.98;;;11.33;92.07
41102;BME280;26845;50.190;19.178;2022-10-29T05:37:53;99326.54;;;11.34;92.04
41102;BME280;26845;50.190;19.178;2022-10-29T05:40:20;99324.63;;;11.32;92.56
41102;BME280;26845;50.190;19.178;2022-10-29T05:42:46;99317.42;;;11.31;92.70
41102;BME280;26845;50.190;19.178;2022-10-29T05:45:12;99329.08;;;11.33;92.65
41102;BME280;26845;50.190;19.178;2022-10-29T05:47:38;99332.10;;;11.34;93.20
41102;BME280;26845;50.190;19.178;2022-10-29T05:50:04;99316.47;;;11.35;93.46
41102;BME280;26845;50.190;19.178;2022-10-29T05:52:30;99310.86;;;11.38;93.01
41102;BME280;26845;50.190;19.178;2022-10-29T05:54:59;99309.41;;;11.40;93.35
41102;BME280;26845;50.190;19.178;2022-10-29T05:57:25;99309.17;;;11.39;93.78
41102;BME280;26845;50.190;19.178;2022-10-29T05:59:52;99303.90;;;11.38;93.88
41102;BME280;26845;50.190;19.178;2022-10-29T06:02:17;99305.29;;;11.38;93.53
41102;BME280;26845;50.190;19.178;2022-10-29T06:04:43;99314.16;;;11.40;94.27
41102;BME280;26845;50.190;19.178;2022-10-29T06:07:08;99303.03;;;11.40;93.39
41102;BME280;26845;50.190;19.178;2022-10-29T06:09:34;99312.15;;;11.43;93.95
41102;BME280;26845;50.190;19.178;2022-10-29T06:12:00;99302.41;;;11.43;94.41
41102;BME280;26845;50.190;19.178;2022-10-29T06:14:25;99301.83;;;11.43;93.58
41102;BME280;26845;50.190;19.178;2022-10-29T06:16:51;99301.21;;;11.46;93.79
41102;BME280;26845;50.190;19.178;2022-10-29T06:19:17;99305.09;;;11.48;93.90
41102;BME280;26845;50.190;19.178;2022-10-29T06:21:42;99319.77;;;11.51;93.32
41102;BME280;26845;50.190;19.178;2022-10-29T06:24:08;99331.37;;;11.56;94.13
41102;BME280;26845;50.190;19.178;2022-10-29T06:26:35;99329.66;;;11.57;93.19
41102;BME280;26845;50.190;19.178;2022-10-29T06:29:03;99342.39;;;11.61;94.04
41102;BME280;26845;50.190;19.178;2022-10-29T06:31:30;99344.55;;;11.64;93.14
41102;BME280;26845;50.190;19.178;2022-10-29T06:33:55;99343.95;;;11.67;93.40
41102;BME280;26845;50.190;19.178;2022-10-29T06:36:21;99338.00;;;11.71;94.32
41102;BME280;26845;50.190;19.178;2022-10-29T06:38:47;99353.56;;;11.72;94.21
41102;BME280;26845;50.190;19.178;2022-10-29T06:41:13;99362.39;;;11.77;94.41
41102;BME280;26845;50.190;19.178;2022-10-29T06:43:39;99356.77;;;11.79;94.13
41102;BME280;26845;50.190;19.178;2022-10-29T06:46:05;99357.53;;;11.82;94.38
41102;BME280;26845;50.190;19.178;2022-10-29T06:48:30;99361.36;;;11.86;94.76
41102;BME280;26845;50.190;19.178;2022-10-29T06:50:59;99357.41;;;11.90;93.76
41102;BME280;26845;50.190;19.178;2022-10-29T06:53:25;99359.81;;;11.94;94.23
41102;BME280;26845;50.190;19.178;2022-10-29T06:55:51;99359.19;;;11.97;94.24
41102;BME280;26845;50.190;19.178;2022-10-29T06:58:19;99354.08;;;12.02;93.91
41102;BME280;26845;50.190;19.178;2022-10-29T07:00:46;99352.00;;;12.07;93.69
41102;BME280;26845;50.190;19.178;2022-10-29T07:03:15;99354.11;;;12.13;93.84
41102;BME280;26845;50.190;19.178;2022-10-29T07:05:42;99355.05;;;12.20;93.62
41102;BME280;26845;50.190;19.178;2022-10-29T07:08:08;99363.88;;;12.24;93.39
41102;BME280;26845;50.190;19.178;2022-10-29T07:10:35;99372.38;;;12.30;93.74
41102;BME280;26845;50.190;19.178;2022-10-29T07:13:01;99382.31;;;12.34;93.35
41102;BME280;26845;50.190;19.178;2022-10-29T07:15:28;99375.80;;;12.38;93.36
41102;BME280;26845;50.190;19.178;2022-10-29T07:18:03;99376.52;;;12.44;93.11
41102;BME280;26845;50.190;19.178;2022-10-29T07:20:32;99382.57;;;12.46;93.12
41102;BME280;26845;50.190;19.178;2022-10-29T07:22:59;99386.97;;;12.50;92.96
41102;BME280;26845;50.190;19.178;2022-10-29T07:25:27;99382.64;;;12.55;92.93
41102;BME280;26845;50.190;19.178;2022-10-29T07:27:53;99388.67;;;12.59;92.78
41102;BME280;26845;50.190;19.178;2022-10-29T07:30:20;99387.73;;;12.64;92.66
41102;BME280;26845;50.190;19.178;2022-10-29T07:32:46;99395.14;;;12.69;92.82
41102;BME280;26845;50.190;19.178;2022-10-29T07:35:11;99402.87;;;12.72;92.74
41102;BME280;26845;50.190;19.178;2022-10-29T07:37:37;99403.72;;;12.72;92.87
41102;BME280;26845;50.190;19.178;2022-10-29T07:40:04;99413.66;;;12.76;92.45
41102;BME280;26845;50.190;19.178;2022-10-29T07:42:30;99399.84;;;12.82;92.37
41102;BME280;26845;50.190;19.178;2022-10-29T07:44:56;99403.08;;;12.87;92.34
41102;BME280;26845;50.190;19.178;2022-10-29T07:47:22;99407.38;;;12.93;92.21
41102;BME280;26845;50.190;19.178;2022-10-29T07:49:47;99410.66;;;12.95;92.20
41102;BME280;26845;50.190;19.178;2022-10-29T07:52:13;99400.77;;;13.00;92.22
41102;BME280;26845;50.190;19.178;2022-10-29T07:54:39;99410.66;;;13.06;91.94
41102;BME280;26845;50.190;19.178;2022-10-29T07:57:04;99414.07;;;13.14;92.16
41102;BME280;26845;50.190;19.178;2022-10-29T07:59:30;99410.58;;;13.20;91.87
41102;BME280;26845;50.190;19.178;2022-10-29T08:01:55;99423.28;;;13.26;91.61
41102;BME280;26845;50.190;19.178;2022-10-29T08:04:21;99423.80;;;13.28;91.15
41102;BME280;26845;50.190;19.178;2022-10-29T08:06:47;99425.12;;;13.31;91.49
41102;BME280;26845;50.190;19.178;2022-10-29T08:09:13;99418.19;;;13.39;91.51
41102;BME280;26845;50.190;19.178;2022-10-29T08:11:39;99418.23;;;13.48;91.60
41102;BME280;26845;50.190;19.178;2022-10-29T08:14:05;99418.91;;;13.54;91.22
41102;BME280;26845;50.190;19.178;2022-10-29T08:16:30;99416.94;;;13.54;90.53
41102;BME280;26845;50.190;19.178;2022-10-29T08:18:56;99419.49;;;13.53;90.70
41102;BME280;26845;50.190;19.178;2022-10-29T08:21:22;99428.73;;;13.62;90.97
41102;BME280;26845;50.190;19.178;2022-10-29T08:23:48;99428.96;;;13.75;90.94
41102;BME280;26845;50.190;19.178;2022-10-29T08:26:14;99429.81;;;13.84;90.22
41102;BME280;26845;50.190;19.178;2022-10-29T08:28:40;99433.14;;;13.94;90.29
41102;BME280;26845;50.190;19.178;2022-10-29T08:31:07;99433.73;;;14.11;90.20
41102;BME280;26845;50.190;19.178;2022-10-29T08:33:35;99436.17;;;14.33;90.44
41102;BME280;26845;50.190;19.178;2022-10-29T08:36:00;99431.88;;;14.55;89.06
41102;BME280;26845;50.190;19.178;2022-10-29T08:38:29;99435.91;;;14.69;88.70
41102;BME280;26845;50.190;19.178;2022-10-29T08:44:23;99439.36;;;15.01;86.19
41102;BME280;26845;50.190;19.178;2022-10-29T08:47:15;99430.59;;;15.11;87.93
41102;BME280;26845;50.190;19.178;2022-10-29T08:52:34;99434.77;;;15.61;87.69
41102;BME280;26845;50.190;19.178;2022-10-29T08:55:26;99422.75;;;15.84;87.37
41102;BME280;26845;50.190;19.178;2022-10-29T08:57:58;99427.41;;;15.94;83.01
41102;BME280;26845;50.190;19.178;2022-10-29T09:00:33;99421.30;;;15.92;83.46
41102;BME280;26845;50.190;19.178;2022-10-29T09:03:00;99423.56;;;15.99;84.95
41102;BME280;26845;50.190;19.178;2022-10-29T09:05:35;99417.68;;;16.07;84.30
41102;BME280;26845;50.190;19.178;2022-10-29T09:10:56;99422.94;;;15.93;81.48
41102;BME280;26845;50.190;19.178;2022-10-29T09:31:08;99421.16;;;16.18;82.10
41102;BME280;26845;50.190;19.178;2022-10-29T09:33:38;99434.22;;;16.14;79.71
41102;BME280;26845;50.190;19.178;2022-10-29T09:36:13;99423.92;;;16.12;79.43
41102;BME280;26845;50.190;19.178;2022-10-29T09:38:58;99422.75;;;15.99;79.54
41102;BME280;26845;50.190;19.178;2022-10-29T09:41:34;99427.27;;;15.91;81.15
41102;BME280;26845;50.190;19.178;2022-10-29T09:44:10;99423.61;;;15.90;81.06
41102;BME280;26845;50.190;19.178;2022-10-29T09:49:40;99424.78;;;16.34;80.65
41102;BME280;26845;50.190;19.178;2022-10-29T09:52:26;99413.83;;;16.62;80.72
41102;BME280;26845;50.190;19.178;2022-10-29T09:54:59;99414.48;;;16.89;80.83
41102;BME280;26845;50.190;19.178;2022-10-29T09:57:30;99405.90;;;17.12;80.94
41102;BME280;26845;50.190;19.178;2022-10-29T10:00:00;99397.09;;;17.07;79.17
41102;BME280;26845;50.190;19.178;2022-10-29T10:02:42;99396.97;;;17.04;79.43
41102;BME280;26845;50.190;19.178;2022-10-29T10:05:15;99397.95;;;17.14;79.71
41102;BME280;26845;50.190;19.178;2022-10-29T10:10:38;99379.22;;;17.12;76.45
41102;BME280;26845;50.190;19.178;2022-10-29T10:13:19;99382.72;;;17.09;77.06
41102;BME280;26845;50.190;19.178;2022-10-29T10:15:51;99379.00;;;17.17;78.33
41102;BME280;26845;50.190;19.178;2022-10-29T10:21:06;99383.81;;;17.17;77.34
41102;BME280;26845;50.190;19.178;2022-10-29T10:26:40;99382.31;;;17.25;77.66
41102;BME280;26845;50.190;19.178;2022-10-29T10:29:18;99379.20;;;17.06;76.53
41102;BME280;26845;50.190;19.178;2022-10-29T10:37:18;99374.21;;;17.24;78.18
41102;BME280;26845;50.190;19.178;2022-10-29T10:39:53;99367.31;;;17.27;76.35
41102;BME280;26845;50.190;19.178;2022-10-29T10:42:32;99364.53;;;17.34;75.81
41102;BME280;26845;50.190;19.178;2022-10-29T10:45:13;99368.65;;;17.42;76.40
41102;BME280;26845;50.190;19.178;2022-10-29T10:47:43;99358.92;;;17.64;76.52
41102;BME280;26845;50.190;19.178;2022-10-29T10:50:19;99355.23;;;17.91;77.10
41102;BME280;26845;50.190;19.178;2022-10-29T10:52:47;99351.53;;;18.21;76.76
41102;BME280;26845;50.190;19.178;2022-10-29T10:55:35;99353.95;;;18.41;74.76
41102;BME280;26845;50.190;19.178;2022-10-29T11:00:46;99355.47;;;18.51;72.78
41102;BME280;26845;50.190;19.178;2022-10-29T11:03:44;99343.80;;;18.58;75.55
41102;BME280;26845;50.190;19.178;2022-10-29T11:06:23;99347.41;;;18.71;74.73
41102;BME280;26845;50.190;19.178;2022-10-29T11:09:28;99343.44;;;18.66;71.49
41102;BME280;26845;50.190;19.178;2022-10-29T11:14:52;99343.52;;;18.48;74.12
41102;BME280;26845;50.190;19.178;2022-10-29T11:17:30;99342.42;;;18.52;72.10
41102;BME280;26845;50.190;19.178;2022-10-29T11:20:18;99338.05;;;18.61;71.67
41102;BME280;26845;50.190;19.178;2022-10-29T11:25:59;99336.02;;;18.80;73.54
41102;BME280;26845;50.190;19.178;2022-10-29T11:28:49;99331.27;;;19.12;73.64
41102;BME280;26845;50.190;19.178;2022-10-29T11:32:02;99328.06;;;19.20;70.24
41102;BME280;26845;50.190;19.178;2022-10-29T11:35:04;99334.21;;;19.09;73.04
41102;BME280;26845;50.190;19.178;2022-10-29T11:37:57;99331.17;;;19.08;71.51
41102;BME280;26845;50.190;19.178;2022-10-29T11:40:34;99333.09;;;19.04;72.02
41102;BME280;26845;50.190;19.178;2022-10-29T11:43:00;99336.47;;;19.10;72.16
41102;BME280;26845;50.190;19.178;2022-10-29T11:45:42;99334.55;;;19.14;70.31
41102;BME280;26845;50.190;19.178;2022-10-29T11:54:13;99348.31;;;18.87;69.12
41102;BME280;26845;50.190;19.178;2022-10-29T11:57:00;99338.08;;;18.89;69.89
41102;BME280;26845;50.190;19.178;2022-10-29T11:59:53;99342.18;;;18.92;68.01
41102;BME280;26845;50.190;19.178;2022-10-29T12:13:27;99318.92;;;19.17;69.99
41102;BME280;26845;50.190;19.178;2022-10-29T12:16:05;99320.42;;;19.20;70.05
41102;BME280;26845;50.190;19.178;2022-10-29T12:24:50;99312.22;;;18.99;68.92
41102;BME280;26845;50.190;19.178;2022-10-29T12:26:53;99304.42;;;18.86;69.78
41102;BME280;26845;50.190;19.178;2022-10-29T12:32:25;99303.30;;;18.75;70.15
41102;BME280;26845;50.190;19.178;2022-10-29T12:43:42;99300.08;;;18.55;70.17
41102;BME280;26845;50.190;19.178;2022-10-29T12:50:21;99294.71;;;18.22;70.17
41102;BME280;26845;50.190;19.178;2022-10-29T12:52:08;99299.77;;;18.04;70.27
41102;BME280;26845;50.190;19.178;2022-10-29T12:54:38;99295.80;;;17.92;70.66
41102;BME280;26845;50.190;19.178;2022-10-29T12:59:43;99291.37;;;17.91;70.52
41102;BME280;26845;50.190;19.178;2022-10-29T13:13:01;99293.49;;;18.91;69.70
41102;BME280;26845;50.190;19.178;2022-10-29T13:21:10;99290.27;;;18.49;69.43
41102;BME280;26845;50.190;19.178;2022-10-29T13:23:36;99278.41;;;18.49;70.02
41102;BME280;26845;50.190;19.178;2022-10-29T13:26:05;99282.54;;;18.46;70.42
41102;BME280;26845;50.190;19.178;2022-10-29T13:41:24;99289.36;;;18.95;69.49
41102;BME280;26845;50.190;19.178;2022-10-29T13:46:58;99290.25;;;18.83;68.21
41102;BME280;26845;50.190;19.178;2022-10-29T13:49:31;99285.56;;;18.81;69.48
41102;BME280;26845;50.190;19.178;2022-10-29T13:52:13;99283.20;;;18.83;69.65
41102;BME280;26845;50.190;19.178;2022-10-29T13:57:33;99278.56;;;18.69;69.25
41102;BME280;26845;50.190;19.178;2022-10-29T14:05:44;99262.60;;;18.73;70.84
41102;BME280;26845;50.190;19.178;2022-10-29T14:08:44;99255.82;;;18.68;70.21
41102;BME280;26845;50.190;19.178;2022-10-29T14:11:25;99251.39;;;18.60;70.17
41102;BME280;26845;50.190;19.178;2022-10-29T14:13:55;99254.61;;;18.53;70.21
41102;BME280;26845;50.190;19.178;2022-10-29T14:16:31;99251.80;;;18.47;70.41
41102;BME280;26845;50.190;19.178;2022-10-29T14:19:18;99252.33;;;18.36;70.25
41102;BME280;26845;50.190;19.178;2022-10-29T14:21:41;99258.50;;;18.14;70.24
41102;BME280;26845;50.190;19.178;2022-10-29T14:24:09;99251.91;;;17.88;70.58
41102;BME280;26845;50.190;19.178;2022-10-29T14:26:38;99257.62;;;17.67;70.66
41102;BME280;26845;50.190;19.178;2022-10-29T14:29:21;99259.30;;;17.43;70.94
41102;BME280;26845;50.190;19.178;2022-10-29T14:32:13;99257.05;;;17.24;71.24
41102;BME280;26845;50.190;19.178;2022-10-29T14:34:44;99264.19;;;17.03;71.53
41102;BME280;26845;50.190;19.178;2022-10-29T14:37:29;99270.23;;;16.87;71.97
41102;BME280;26845;50.190;19.178;2022-10-29T14:40:04;99274.72;;;16.73;72.50
41102;BME280;26845;50.190;19.178;2022-10-29T14:42:39;99271.54;;;16.56;72.67
41102;BME280;26845;50.190;19.178;2022-10-29T14:45:16;99270.33;;;16.45;72.93
41102;BME280;26845;50.190;19.178;2022-10-29T14:47:57;99270.52;;;16.34;73.12
41102;BME280;26845;50.190;19.178;2022-10-29T14:50:22;99269.52;;;16.24;73.90
41102;BME280;26845;50.190;19.178;2022-10-29T14:52:56;99274.00;;;16.10;74.03
41102;BME280;26845;50.190;19.178;2022-10-29T14:55:27;99278.02;;;15.94;74.14
41102;BME280;26845;50.190;19.178;2022-10-29T15:00:54;99287.13;;;15.67;77.05
41102;BME280;26845;50.190;19.178;2022-10-29T15:03:23;99282.80;;;15.49;76.44
41102;BME280;26845;50.190;19.178;2022-10-29T15:06:08;99281.96;;;15.34;77.73
41102;BME280;26845;50.190;19.178;2022-10-29T15:08:39;99282.77;;;15.19;77.28
41102;BME280;26845;50.190;19.178;2022-10-29T15:13:53;99290.13;;;14.94;78.06
41102;BME280;26845;50.190;19.178;2022-10-29T15:16:20;99293.86;;;14.83;77.62
41102;BME280;26845;50.190;19.178;2022-10-29T15:18:47;99291.32;;;14.76;79.33
41102;BME280;26845;50.190;19.178;2022-10-29T15:21:27;99285.98;;;14.68;78.72
41102;BME280;26845;50.190;19.178;2022-10-29T15:24:09;99288.24;;;14.60;79.47
41102;BME280;26845;50.190;19.178;2022-10-29T15:26:53;99294.45;;;14.48;80.37
41102;BME280;26845;50.190;19.178;2022-10-29T15:29:27;99292.02;;;14.38;79.97
41102;BME280;26845;50.190;19.178;2022-10-29T15:31:53;99284.77;;;14.28;79.95
41102;BME280;26845;50.190;19.178;2022-10-29T15:34:27;99290.55;;;14.23;80.25
41102;BME280;26845;50.190;19.178;2022-10-29T15:40:08;99281.98;;;14.11;80.07
41102;BME280;26845;50.190;19.178;2022-10-29T15:42:36;99277.71;;;14.05;81.11
41102;BME280;26845;50.190;19.178;2022-10-29T15:45:15;99269.48;;;14.00;80.07
41102;BME280;26845;50.190;19.178;2022-10-29T15:47:51;99272.62;;;13.98;80.75
41102;BME280;26845;50.190;19.178;2022-10-29T15:50:38;99269.98;;;13.93;81.38
41102;BME280;26845;50.190;19.178;2022-10-29T15:53:13;99281.31;;;13.88;81.28
41102;BME280;26845;50.190;19.178;2022-10-29T15:55:40;99282.39;;;13.81;81.93